Time;durP1;ratioP1;P1;durP2;ratioP2;P2;SDS_P1;SDS_P2;PMS_P1;PMS_P2;Temp;Humidity;BMP_temperature;BMP_pressure;BME280_temperature;BME280_humidity;BME280_pressure;Samples;Min_cycle;Max_cycle;Signal;HPM_P1;HPM_P2
2023/12/30 00:00:42;;;;;;;;;;;;;;;8.20;100.00;95562.00;10600514;27;2433;-65
2023/12/30 00:05:52;;;;;;;;;;;;;;;8.26;100.00;95560.16;10600112;27;1898;-64
2023/12/30 00:10:56;;;;;;;;;;;;;;;8.31;100.00;95563.66;10600574;27;1980;-64
2023/12/30 00:16:01;;;;;;;;;;;;;;;8.11;100.00;95563.59;10588571;27;5156;-65
2023/12/30 00:21:08;;;;;;;;;;;;;;;7.91;100.00;95572.38;10605497;27;1936;-65
2023/12/30 00:26:12;;;;;;;;;;;;;;;7.85;100.00;95571.53;10602804;27;1959;-65
2023/12/30 00:31:16;;;;;;;;;;;;;;;7.71;100.00;95566.94;10610647;27;2118;-65
2023/12/30 00:36:22;;;;;;;;;;;;;;;7.62;100.00;95577.31;10589548;27;1890;-65
2023/12/30 00:41:25;;;;;;;;;;;;;;;7.52;100.00;95575.38;10603245;27;1924;-65
2023/12/30 00:46:31;;;;;;;;;;;;;;;7.51;100.00;95571.13;10598535;27;1964;-65
2023/12/30 00:51:36;;;;;;;;;;;;;;;7.39;100.00;95573.19;10604505;27;2026;-64
2023/12/30 00:56:40;;;;;;;;;;;;;;;7.37;100.00;95577.94;10593696;27;2558;-64
2023/12/30 01:01:44;;;;;;;;;;;;;;;7.35;100.00;95565.91;10598011;27;2107;-64
2023/12/30 01:06:46;;;;;;;;;;;;;;;7.29;100.00;95570.41;10603027;27;2059;-64
2023/12/30 01:11:49;;;;;;;;;;;;;;;7.29;100.00;95573.09;10602858;27;5358;-64
2023/12/30 01:16:56;;;;;;;;;;;;;;;7.23;100.00;95572.25;10602330;27;2147;-63
2023/12/30 01:22:03;;;;;;;;;;;;;;;7.26;100.00;95581.66;10589647;27;1969;-64
2023/12/30 01:27:12;;;;;;;;;;;;;;;7.25;100.00;95577.34;10590452;27;1953;-64
2023/12/30 01:32:17;;;;;;;;;;;;;;;7.26;100.00;95589.66;10598233;27;1972;-64
2023/12/30 01:37:21;;;;;;;;;;;;;;;7.26;100.00;95587.00;10606247;27;2040;-67
2023/12/30 01:42:30;;;;;;;;;;;;;;;7.27;100.00;95608.13;10570985;27;2052;-71
2023/12/30 01:47:34;;;;;;;;;;;;;;;7.25;100.00;95609.41;10600309;27;2138;-64
2023/12/30 01:52:39;;;;;;;;;;;;;;;7.29;100.00;95618.56;10604652;27;2493;-64
2023/12/30 01:57:42;;;;;;;;;;;;;;;7.23;100.00;95606.22;10604821;27;2176;-63
2023/12/30 02:03:05;;;;;;;;;;;;;;;7.20;100.00;95612.06;10461351;28;2212;-65
2023/12/30 02:08:08;;;;;;;;;;;;;;;7.21;100.00;95603.00;10475146;28;2146;-64
2023/12/30 02:13:11;;;;;;;;;;;;;;;7.17;100.00;95609.91;10474962;28;5264;-64
2023/12/30 02:18:14;;;;;;;;;;;;;;;7.10;100.00;95610.13;10483089;27;1923;-63
2023/12/30 02:23:17;;;;;;;;;;;;;;;7.08;100.00;95614.94;10596444;27;2043;-64
2023/12/30 02:28:21;;;;;;;;;;;;;;;7.02;100.00;95607.91;10586698;27;1997;-66
2023/12/30 02:33:24;;;;;;;;;;;;;;;6.92;100.00;95613.97;10590519;27;2005;-64
2023/12/30 02:38:29;;;;;;;;;;;;;;;6.97;100.00;95608.69;10593667;27;1891;-64
2023/12/30 02:43:32;;;;;;;;;;;;;;;6.90;100.00;95623.31;10587149;27;1927;-64
2023/12/30 02:48:37;;;;;;;;;;;;;;;6.86;100.00;95619.53;10594544;27;1940;-65
2023/12/30 02:53:41;;;;;;;;;;;;;;;6.89;100.00;95621.72;10594169;27;2051;-65
2023/12/30 02:58:44;;;;;;;;;;;;;;;6.84;100.00;95625.13;10579613;27;1987;-65
2023/12/30 03:03:47;;;;;;;;;;;;;;;6.74;100.00;95627.69;10601883;27;2399;-63
2023/12/30 03:08:53;;;;;;;;;;;;;;;6.70;100.00;95624.75;10584328;27;1983;-64
2023/12/30 03:13:56;;;;;;;;;;;;;;;6.74;100.00;95635.72;10566437;27;5283;-63
2023/12/30 03:19:07;;;;;;;;;;;;;;;6.73;100.00;95637.56;10597935;27;1933;-64
2023/12/30 03:24:10;;;;;;;;;;;;;;;6.67;100.00;95643.13;10592611;27;1933;-63
2023/12/30 03:29:20;;;;;;;;;;;;;;;6.65;100.00;95645.25;10595171;27;2087;-62
2023/12/30 03:34:25;;;;;;;;;;;;;;;6.65;100.00;95648.72;10578818;27;2081;-64
2023/12/30 03:39:28;;;;;;;;;;;;;;;6.64;100.00;95665.00;10594681;27;1883;-65
2023/12/30 03:44:32;;;;;;;;;;;;;;;6.57;100.00;95651.03;10584268;27;1957;-64
2023/12/30 03:49:35;;;;;;;;;;;;;;;6.51;100.00;95655.53;10595636;27;1985;-63
2023/12/30 03:54:39;;;;;;;;;;;;;;;6.47;100.00;95655.19;10587305;27;2075;-63
2023/12/30 03:59:42;;;;;;;;;;;;;;;6.46;100.00;95648.25;10582083;27;2136;-63
2023/12/30 04:04:45;;;;;;;;;;;;;;;6.44;100.00;95663.72;10582161;27;1982;-64
2023/12/30 04:09:49;;;;;;;;;;;;;;;6.50;100.00;95654.72;10593885;27;2056;-64
2023/12/30 04:14:52;;;;;;;;;;;;;;;6.53;100.00;95655.25;10612139;27;5117;-64
2023/12/30 04:19:57;;;;;;;;;;;;;;;6.50;100.00;95659.25;10601311;27;2121;-64
2023/12/30 04:25:00;;;;;;;;;;;;;;;6.43;100.00;95670.13;10605742;27;2072;-63
2023/12/30 04:30:04;;;;;;;;;;;;;;;6.31;100.00;95665.97;10599096;27;2082;-64
2023/12/30 04:35:08;;;;;;;;;;;;;;;6.32;100.00;95664.91;10605215;27;2229;-64
2023/12/30 04:40:14;;;;;;;;;;;;;;;6.33;100.00;95669.19;10611042;27;2007;-64
2023/12/30 04:45:17;;;;;;;;;;;;;;;6.36;100.00;95680.19;10588619;27;1900;-64
2023/12/30 04:50:20;;;;;;;;;;;;;;;6.44;100.00;95679.75;10578163;27;1997;-64
2023/12/30 04:55:23;;;;;;;;;;;;;;;6.54;100.00;95680.91;10580536;27;2235;-65
2023/12/30 05:00:27;;;;;;;;;;;;;;;6.62;100.00;95675.16;10597670;27;2067;-64
2023/12/30 05:05:31;;;;;;;;;;;;;;;6.81;100.00;95684.44;10600934;27;1906;-64
2023/12/30 05:10:37;;;;;;;;;;;;;;;6.96;100.00;95687.25;10597818;27;1955;-64
2023/12/30 05:15:41;;;;;;;;;;;;;;;6.97;100.00;95688.84;10608913;27;5081;-64
2023/12/30 05:20:44;;;;;;;;;;;;;;;7.04;100.00;95676.09;10607135;27;1935;-64
2023/12/30 05:25:47;;;;;;;;;;;;;;;7.12;100.00;95679.34;10603498;27;1926;-64
2023/12/30 05:30:50;;;;;;;;;;;;;;;7.07;100.00;95676.66;10606805;27;2123;-63
2023/12/30 05:35:57;;;;;;;;;;;;;;;7.23;100.00;95686.41;10587720;27;1950;-64
2023/12/30 05:41:00;;;;;;;;;;;;;;;7.36;100.00;95694.00;10606310;27;2315;-64
2023/12/30 05:46:03;;;;;;;;;;;;;;;7.41;100.00;95690.56;10590592;27;2040;-67
2023/12/30 05:51:06;;;;;;;;;;;;;;;7.41;100.00;95701.28;10591831;27;2300;-65
2023/12/30 05:56:10;;;;;;;;;;;;;;;7.46;100.00;95704.00;10608106;27;1905;-73
2023/12/30 06:01:15;;;;;;;;;;;;;;;7.53;100.00;95708.06;10607211;27;2135;-73
2023/12/30 06:06:18;;;;;;;;;;;;;;;7.51;100.00;95706.72;10599836;27;1941;-72
2023/12/30 06:11:28;;;;;;;;;;;;;;;7.57;100.00;95719.03;10603917;27;1976;-64
2023/12/30 06:16:34;;;;;;;;;;;;;;;7.51;100.00;95715.53;10567772;27;1973;-65
2023/12/30 06:21:38;;;;;;;;;;;;;;;7.41;100.00;95720.00;10577559;27;2337;-64
2023/12/30 06:26:42;;;;;;;;;;;;;;;7.37;100.00;95722.34;10590006;27;1986;-64
2023/12/30 06:31:45;;;;;;;;;;;;;;;7.26;100.00;95718.81;10586073;27;1950;-64
2023/12/30 06:36:55;;;;;;;;;;;;;;;7.14;100.00;95736.06;10601283;27;1964;-64
2023/12/30 06:42:00;;;;;;;;;;;;;;;7.00;100.00;95728.44;10606308;27;1966;-67
2023/12/30 06:47:05;;;;;;;;;;;;;;;6.94;100.00;95742.81;10603325;27;2396;-64
2023/12/30 06:52:08;;;;;;;;;;;;;;;6.83;100.00;95748.28;10595180;27;2059;-66
2023/12/30 06:57:12;;;;;;;;;;;;;;;6.90;100.00;95738.22;10584601;27;2047;-65
2023/12/30 07:02:18;;;;;;;;;;;;;;;6.97;100.00;95747.66;10599972;27;2021;-65
2023/12/30 07:07:23;;;;;;;;;;;;;;;6.94;100.00;95734.78;10601539;27;2044;-66
2023/12/30 07:12:34;;;;;;;;;;;;;;;6.86;100.00;95745.91;10595264;27;5105;-64
2023/12/30 07:17:37;;;;;;;;;;;;;;;6.70;100.00;95752.16;10570773;27;1933;-64
2023/12/30 07:22:41;;;;;;;;;;;;;;;6.69;100.00;95747.88;10580222;27;2062;-67
2023/12/30 07:27:47;;;;;;;;;;;;;;;6.61;100.00;95758.97;10569025;27;2058;-65
2023/12/30 07:32:50;;;;;;;;;;;;;;;6.55;100.00;95782.13;10588338;27;2074;-66
2023/12/30 07:37:53;;;;;;;;;;;;;;;6.65;100.00;95784.13;10595274;27;2013;-65
2023/12/30 07:42:56;;;;;;;;;;;;;;;6.82;100.00;95787.56;10576783;27;2293;-65
2023/12/30 07:48:01;;;;;;;;;;;;;;;6.81;100.00;95785.97;10587125;27;2062;-65
2023/12/30 07:53:03;;;;;;;;;;;;;;;6.64;100.00;95796.69;10587363;27;2158;-65
2023/12/30 07:58:13;;;;;;;;;;;;;;;6.59;100.00;95803.81;10589027;27;1898;-65
2023/12/30 08:03:18;;;;;;;;;;;;;;;6.58;100.00;95807.56;10581219;27;1958;-65
2023/12/30 08:08:24;;;;;;;;;;;;;;;6.60;100.00;95792.09;10611979;27;1954;-66
2023/12/30 08:13:31;;;;;;;;;;;;;;;6.58;100.00;95786.19;10583184;27;5053;-63
2023/12/30 08:18:33;;;;;;;;;;;;;;;6.62;100.00;95792.66;10577951;27;1946;-63
2023/12/30 08:23:36;;;;;;;;;;;;;;;6.68;100.00;95786.31;10579736;27;2129;-63
2023/12/30 08:28:45;;;;;;;;;;;;;;;6.76;100.00;95792.03;10583950;27;1872;-63
2023/12/30 08:33:48;;;;;;;;;;;;;;;6.84;100.00;95790.78;10599475;27;2010;-65
2023/12/30 08:38:51;;;;;;;;;;;;;;;6.98;100.00;95799.22;10587205;27;2355;-64
2023/12/30 08:43:55;;;;;;;;;;;;;;;7.10;100.00;95802.56;10603462;27;1901;-64
2023/12/30 08:49:00;;;;;;;;;;;;;;;7.18;100.00;95809.34;10604297;27;2270;-65
2023/12/30 08:54:05;;;;;;;;;;;;;;;7.36;100.00;95816.22;10611500;27;2039;-64
2023/12/30 08:59:15;;;;;;;;;;;;;;;7.46;100.00;95811.78;10598074;27;1885;-64
2023/12/30 09:04:20;;;;;;;;;;;;;;;7.47;100.00;95807.25;10600216;27;2031;-64
2023/12/30 09:09:24;;;;;;;;;;;;;;;7.58;100.00;95807.09;10608036;27;1996;-64
2023/12/30 09:14:29;;;;;;;;;;;;;;;7.66;100.00;95816.50;10582076;27;5050;-64
2023/12/30 09:19:35;;;;;;;;;;;;;;;7.84;100.00;95818.81;10601646;27;2090;-63
2023/12/30 09:24:41;;;;;;;;;;;;;;;8.01;100.00;95818.66;10586762;27;2071;-64
2023/12/30 09:29:45;;;;;;;;;;;;;;;8.12;100.00;95817.69;10603179;27;1937;-66
2023/12/30 09:34:53;;;;;;;;;;;;;;;8.27;100.00;95825.03;10598357;27;2094;-65
2023/12/30 09:39:59;;;;;;;;;;;;;;;8.35;100.00;95821.91;10600318;27;1934;-63
2023/12/30 09:45:03;;;;;;;;;;;;;;;8.57;100.00;95819.09;10599407;27;1925;-63
2023/12/30 09:50:07;;;;;;;;;;;;;;;8.68;100.00;95811.09;10603993;27;1950;-64
2023/12/30 09:55:12;;;;;;;;;;;;;;;8.78;100.00;95803.09;10597761;27;1974;-66
2023/12/30 10:00:18;;;;;;;;;;;;;;;8.87;100.00;95802.34;10589567;27;3068;-64
2023/12/30 10:05:21;;;;;;;;;;;;;;;8.89;100.00;95794.03;10602494;27;2008;-63
2023/12/30 10:10:25;;;;;;;;;;;;;;;8.96;100.00;95793.78;10595044;27;2123;-65
2023/12/30 10:15:28;;;;;;;;;;;;;;;8.98;100.00;95781.75;10605496;27;5018;-66
2023/12/30 10:20:34;;;;;;;;;;;;;;;9.03;100.00;95792.47;10601246;27;2036;-64
2023/12/30 10:25:42;;;;;;;;;;;;;;;9.14;100.00;95779.91;10597144;27;1920;-64
2023/12/30 10:30:44;;;;;;;;;;;;;;;9.21;100.00;95765.19;10599300;27;2051;-64
2023/12/30 10:35:47;;;;;;;;;;;;;;;9.20;100.00;95768.94;10609372;27;2051;-65
2023/12/30 10:40:50;;;;;;;;;;;;;;;9.35;100.00;95767.34;10588057;27;2020;-64
2023/12/30 10:45:57;;;;;;;;;;;;;;;9.41;100.00;95767.09;10595493;27;1953;-64
2023/12/30 10:51:04;;;;;;;;;;;;;;;9.60;100.00;95769.25;10582332;27;1961;-64
2023/12/30 10:56:07;;;;;;;;;;;;;;;9.59;100.00;95760.41;10604362;27;2193;-64
2023/12/30 11:01:13;;;;;;;;;;;;;;;9.75;100.00;95748.63;10590770;27;1969;-64
2023/12/30 11:06:17;;;;;;;;;;;;;;;9.80;100.00;95757.72;10586682;27;2017;-64
2023/12/30 11:11:25;;;;;;;;;;;;;;;9.77;100.00;95755.59;10600637;27;1984;-64
2023/12/30 11:16:28;;;;;;;;;;;;;;;9.87;100.00;95751.03;10594166;27;2099;-64
2023/12/30 11:21:32;;;;;;;;;;;;;;;9.96;100.00;95743.25;10597654;27;1963;-65
2023/12/30 11:26:37;;;;;;;;;;;;;;;9.92;100.00;95728.72;10601881;27;2054;-64
2023/12/30 11:31:42;;;;;;;;;;;;;;;10.02;100.00;95723.34;10594555;27;2152;-66
2023/12/30 11:36:46;;;;;;;;;;;;;;;10.03;100.00;95722.28;10607311;27;2170;-73
2023/12/30 11:41:51;;;;;;;;;;;;;;;10.14;100.00;95717.69;10586435;27;2539;-66
2023/12/30 11:46:56;;;;;;;;;;;;;;;10.21;100.00;95724.41;10597178;27;1866;-74
2023/12/30 11:52:01;;;;;;;;;;;;;;;10.25;100.00;95722.81;10590747;27;1991;-64
2023/12/30 11:57:06;;;;;;;;;;;;;;;10.11;100.00;95716.34;10595577;27;1893;-65
2023/12/30 12:02:11;;;;;;;;;;;;;;;10.17;100.00;95728.69;10591082;27;1958;-66
2023/12/30 12:07:16;;;;;;;;;;;;;;;10.09;100.00;95723.88;10590060;27;1970;-65
2023/12/30 12:12:21;;;;;;;;;;;;;;;10.16;100.00;95723.59;10599602;27;2018;-65
2023/12/30 12:17:25;;;;;;;;;;;;;;;10.16;100.00;95710.97;10599246;27;1930;-65
2023/12/30 12:22:30;;;;;;;;;;;;;;;10.22;100.00;95715.25;10587402;27;1851;-64
2023/12/30 12:27:35;;;;;;;;;;;;;;;10.11;100.00;95700.22;10585864;27;2506;-65
2023/12/30 12:32:40;;;;;;;;;;;;;;;10.05;100.00;95698.63;10593896;27;1911;-68
2023/12/30 12:37:44;;;;;;;;;;;;;;;9.96;100.00;95711.00;10595491;27;1917;-65
2023/12/30 12:42:47;;;;;;;;;;;;;;;10.03;100.00;95696.22;10579059;27;2067;-64
2023/12/30 12:47:51;;;;;;;;;;;;;;;10.12;100.00;95704.56;10575523;27;1933;-64
2023/12/30 12:52:55;;;;;;;;;;;;;;;10.12;100.00;95693.81;10594837;27;2036;-63
2023/12/30 12:57:58;;;;;;;;;;;;;;;10.18;100.00;95698.09;10588464;27;2104;-64
2023/12/30 13:03:02;;;;;;;;;;;;;;;10.19;100.00;95690.84;10609370;27;1929;-64
2023/12/30 13:08:06;;;;;;;;;;;;;;;10.18;100.00;95692.72;10611728;27;2348;-65
2023/12/30 13:13:12;;;;;;;;;;;;;;;10.21;100.00;95689.47;10595588;27;5217;-66
2023/12/30 13:18:19;;;;;;;;;;;;;;;10.05;100.00;95687.88;10581431;27;2272;-66
2023/12/30 13:23:25;;;;;;;;;;;;;;;10.08;100.00;95675.81;10584402;27;2022;-66
2023/12/30 13:28:29;;;;;;;;;;;;;;;10.02;100.00;95677.72;10597538;27;1946;-65
2023/12/30 13:33:35;;;;;;;;;;;;;;;9.93;100.00;95684.72;10602065;27;2114;-64
2023/12/30 13:38:41;;;;;;;;;;;;;;;9.89;100.00;95675.59;10604650;27;2084;-65
2023/12/30 13:43:47;;;;;;;;;;;;;;;9.74;100.00;95665.69;10603750;27;2114;-64
2023/12/30 13:49:23;;;;;;;;;;;;;;;9.71;100.00;95677.75;10606758;27;2191;-64
2023/12/30 13:54:23;;;;;;;;;;;;;;;9.69;100.00;95666.50;10595690;27;1910;-70
2023/12/30 13:59:26;;;;;;;;;;;;;;;9.62;100.00;95665.16;10580248;27;2120;-65
2023/12/30 14:04:33;;;;;;;;;;;;;;;9.56;100.00;95674.28;10602343;27;1995;-64
2023/12/30 14:09:44;;;;;;;;;;;;;;;9.50;100.00;95676.16;10596992;27;2231;-64
2023/12/30 14:14:53;;;;;;;;;;;;;;;9.43;100.00;95675.63;10603087;27;5175;-64
2023/12/30 14:19:57;;;;;;;;;;;;;;;9.33;100.00;95665.69;10602182;27;2065;-64
2023/12/30 14:25:04;;;;;;;;;;;;;;;9.26;100.00;95681.25;10594621;27;1921;-64
2023/12/30 14:30:11;;;;;;;;;;;;;;;9.15;100.00;95676.94;10600188;27;2039;-64
2023/12/30 14:35:15;;;;;;;;;;;;;;;9.09;100.00;95664.59;10577075;27;2515;-64
2023/12/30 14:40:19;;;;;;;;;;;;;;;9.04;100.00;95659.25;10601394;27;2042;-64
2023/12/30 14:45:22;;;;;;;;;;;;;;;8.96;100.00;95651.72;10599227;27;1963;-65
2023/12/30 14:50:25;;;;;;;;;;;;;;;8.86;100.00;95652.50;10585291;27;1882;-65
2023/12/30 14:55:31;;;;;;;;;;;;;;;8.56;100.00;95655.91;10601543;27;1948;-65
2023/12/30 15:00:38;;;;;;;;;;;;;;;8.48;100.00;95654.56;10599794;27;2016;-65
2023/12/30 15:05:45;;;;;;;;;;;;;;;8.26;100.00;95651.22;10615429;27;2003;-65
2023/12/30 15:10:55;;;;;;;;;;;;;;;8.22;100.00;95650.13;10601753;27;1896;-65
2023/12/30 15:15:58;;;;;;;;;;;;;;;8.08;100.00;95655.97;10598131;27;1981;-64
2023/12/30 15:21:06;;;;;;;;;;;;;;;7.86;100.00;95653.44;10584385;27;2142;-64
2023/12/30 15:26:14;;;;;;;;;;;;;;;7.56;100.00;95653.22;10603978;27;2013;-64
2023/12/30 15:31:18;;;;;;;;;;;;;;;7.39;100.00;95648.06;10567144;27;2126;-65
2023/12/30 15:36:22;;;;;;;;;;;;;;;7.36;100.00;95645.88;10577126;27;2021;-65
2023/12/30 15:41:25;;;;;;;;;;;;;;;7.21;100.00;95643.91;10582641;27;1959;-66
2023/12/30 15:46:28;;;;;;;;;;;;;;;7.11;100.00;95651.00;10595568;27;2126;-65
2023/12/30 15:51:33;;;;;;;;;;;;;;;7.11;100.00;95645.66;10586100;27;2134;-65
2023/12/30 15:56:36;;;;;;;;;;;;;;;6.88;100.00;95647.63;10580653;27;2264;-65
2023/12/30 16:01:40;;;;;;;;;;;;;;;6.66;100.00;95652.19;10584361;27;1968;-65
2023/12/30 16:06:44;;;;;;;;;;;;;;;6.46;100.00;95656.25;10578241;27;2126;-65
2023/12/30 16:11:49;;;;;;;;;;;;;;;6.37;100.00;95647.09;10598554;27;1961;-65
2023/12/30 16:16:55;;;;;;;;;;;;;;;6.32;100.00;95654.25;10577477;27;1920;-65
2023/12/30 16:22:01;;;;;;;;;;;;;;;6.25;100.00;95648.28;10591466;27;1996;-65
2023/12/30 16:27:05;;;;;;;;;;;;;;;6.12;100.00;95650.28;10577650;27;1864;-63
2023/12/30 16:32:07;;;;;;;;;;;;;;;6.07;100.00;95647.53;10579626;27;1938;-65
2023/12/30 16:37:11;;;;;;;;;;;;;;;6.02;100.00;95654.66;10581290;27;1913;-71
2023/12/30 16:42:16;;;;;;;;;;;;;;;6.09;100.00;95644.59;10583729;27;1964;-68
2023/12/30 16:47:20;;;;;;;;;;;;;;;5.99;100.00;95653.31;10611275;27;1933;-70
2023/12/30 16:52:23;;;;;;;;;;;;;;;5.90;100.00;95646.75;10599253;27;2099;-71
2023/12/30 16:57:26;;;;;;;;;;;;;;;5.79;100.00;95645.81;10604010;27;1987;-65
2023/12/30 17:02:33;;;;;;;;;;;;;;;5.68;100.00;95646.72;10608187;27;2116;-65
2023/12/30 17:07:36;;;;;;;;;;;;;;;5.57;100.00;95647.63;10609615;27;1929;-64
2023/12/30 17:12:42;;;;;;;;;;;;;;;5.60;100.00;95657.81;10604397;27;5153;-64
2023/12/30 17:17:47;;;;;;;;;;;;;;;5.47;100.00;95661.63;10611249;27;2070;-65
2023/12/30 17:22:51;;;;;;;;;;;;;;;5.35;100.00;95661.72;10597491;27;2082;-70
2023/12/30 17:28:01;;;;;;;;;;;;;;;5.29;100.00;95667.22;10611461;27;1998;-65
2023/12/30 17:33:05;;;;;;;;;;;;;;;5.34;100.00;95669.94;10602306;27;1990;-66
2023/12/30 17:38:12;;;;;;;;;;;;;;;5.35;100.00;95659.03;10580793;27;1968;-68
2023/12/30 17:43:17;;;;;;;;;;;;;;;5.21;100.00;95657.75;10608311;27;2427;-64
2023/12/30 17:48:20;;;;;;;;;;;;;;;5.09;100.00;95668.50;10587368;27;1952;-65
2023/12/30 17:53:25;;;;;;;;;;;;;;;5.08;100.00;95666.06;10598374;27;2297;-66
2023/12/30 17:58:28;;;;;;;;;;;;;;;5.04;100.00;95656.94;10587483;27;2002;-71
2023/12/30 18:03:31;;;;;;;;;;;;;;;5.00;100.00;95666.47;10582648;27;1994;-65
2023/12/30 18:08:34;;;;;;;;;;;;;;;4.83;100.00;95661.91;10603883;27;2143;-64
2023/12/30 18:13:39;;;;;;;;;;;;;;;4.82;100.00;95662.94;10604448;27;5121;-64
2023/12/30 18:18:42;;;;;;;;;;;;;;;4.93;100.00;95657.81;10596015;27;2051;-64
2023/12/30 18:23:45;;;;;;;;;;;;;;;4.83;100.00;95653.09;10592740;27;2067;-63
2023/12/30 18:28:49;;;;;;;;;;;;;;;4.69;100.00;95655.28;10600148;27;1942;-64
2023/12/30 18:33:52;;;;;;;;;;;;;;;4.68;100.00;95656.31;10578754;27;2114;-65
2023/12/30 18:38:55;;;;;;;;;;;;;;;4.67;100.00;95649.38;10580142;27;2210;-63
2023/12/30 18:44:01;;;;;;;;;;;;;;;4.58;100.00;95645.47;10595845;27;2035;-64
2023/12/30 18:49:04;;;;;;;;;;;;;;;4.45;100.00;95651.91;10577194;27;2032;-65
2023/12/30 18:54:07;;;;;;;;;;;;;;;4.46;100.00;95650.06;10598070;27;2056;-65
2023/12/30 18:59:13;;;;;;;;;;;;;;;4.67;100.00;95640.59;10599575;27;1898;-65
2023/12/30 19:04:16;;;;;;;;;;;;;;;4.58;100.00;95634.81;10597113;27;1976;-65
2023/12/30 19:09:19;;;;;;;;;;;;;;;4.58;100.00;95635.66;10594504;27;1872;-65
2023/12/30 19:14:22;;;;;;;;;;;;;;;4.58;100.00;95635.66;10596334;27;2162;-64
2023/12/30 19:19:26;;;;;;;;;;;;;;;4.50;100.00;95637.88;10598120;27;1917;-65
2023/12/30 19:24:29;;;;;;;;;;;;;;;4.34;100.00;95628.81;10592952;27;2154;-65
2023/12/30 19:29:32;;;;;;;;;;;;;;;4.29;100.00;95626.88;10594421;27;1937;-63
2023/12/30 19:34:37;;;;;;;;;;;;;;;4.30;100.00;95623.16;10594213;27;2003;-67
2023/12/30 19:39:44;;;;;;;;;;;;;;;4.28;100.00;95619.94;10589781;27;2055;-64
2023/12/30 19:44:48;;;;;;;;;;;;;;;4.28;100.00;95608.47;10610614;27;2004;-64
2023/12/30 19:50:00;;;;;;;;;;;;;;;4.17;100.00;95612.78;10579379;27;2065;-65
2023/12/30 19:55:06;;;;;;;;;;;;;;;4.11;100.00;95611.09;10575083;27;2022;-65
2023/12/30 20:00:13;;;;;;;;;;;;;;;4.01;100.00;95610.91;10596118;27;2047;-64
2023/12/30 20:05:19;;;;;;;;;;;;;;;3.98;100.00;95596.19;10591126;27;2091;-63
2023/12/30 20:10:23;;;;;;;;;;;;;;;3.94;100.00;95603.03;10590021;27;2166;-63
2023/12/30 20:15:31;;;;;;;;;;;;;;;3.92;100.00;95596.34;10590470;27;2082;-64
2023/12/30 20:20:34;;;;;;;;;;;;;;;3.83;100.00;95595.91;10599784;27;2163;-66
2023/12/30 20:25:40;;;;;;;;;;;;;;;3.82;100.00;95588.16;10574287;27;1895;-65
2023/12/30 20:30:44;;;;;;;;;;;;;;;3.80;100.00;95581.22;10589010;27;2031;-64
2023/12/30 20:35:50;;;;;;;;;;;;;;;3.77;100.00;95584.38;10605240;27;2027;-65
2023/12/30 20:40:56;;;;;;;;;;;;;;;3.75;100.00;95573.16;10601900;27;2028;-64
2023/12/30 20:46:02;;;;;;;;;;;;;;;3.78;100.00;95567.38;10589678;27;2096;-64
2023/12/30 20:51:05;;;;;;;;;;;;;;;3.74;100.00;95566.22;10598192;27;2019;-64
2023/12/30 20:56:10;;;;;;;;;;;;;;;3.86;100.00;95566.19;10598318;27;1968;-65
2023/12/30 21:01:18;;;;;;;;;;;;;;;3.84;100.00;95562.16;10599317;27;1973;-63
2023/12/30 21:06:24;;;;;;;;;;;;;;;3.83;100.00;95558.69;10588328;27;2186;-64
2023/12/30 21:11:29;;;;;;;;;;;;;;;3.83;100.00;95544.59;10585236;27;1946;-64
2023/12/30 21:16:34;;;;;;;;;;;;;;;3.75;100.00;95540.44;10604345;27;2087;-65
2023/12/30 21:21:37;;;;;;;;;;;;;;;3.72;100.00;95540.91;10598674;27;2045;-64
2023/12/30 21:26:41;;;;;;;;;;;;;;;3.69;100.00;95536.88;10588468;27;2050;-63
2023/12/30 21:31:44;;;;;;;;;;;;;;;3.66;100.00;95532.03;10595218;27;2075;-64
2023/12/30 21:36:47;;;;;;;;;;;;;;;3.56;100.00;95526.50;10566547;27;2009;-64
2023/12/30 21:41:53;;;;;;;;;;;;;;;3.58;100.00;95519.13;10580950;27;2048;-65
2023/12/30 21:46:59;;;;;;;;;;;;;;;3.70;100.00;95509.25;10581200;27;1963;-64
2023/12/30 21:52:06;;;;;;;;;;;;;;;3.75;100.00;95514.69;10618318;27;2035;-64
2023/12/30 21:57:09;;;;;;;;;;;;;;;3.78;100.00;95500.09;10602206;27;2035;-66
2023/12/30 22:02:12;;;;;;;;;;;;;;;3.85;100.00;95499.94;10582246;27;2132;-68
2023/12/30 22:07:15;;;;;;;;;;;;;;;3.79;100.00;95501.69;10602158;27;2075;-69
2023/12/30 22:12:18;;;;;;;;;;;;;;;3.75;100.00;95488.09;10587191;27;1964;-70
2023/12/30 22:17:22;;;;;;;;;;;;;;;3.68;100.00;95487.41;10602265;27;2182;-64
2023/12/30 22:22:30;;;;;;;;;;;;;;;3.49;100.00;95494.75;10581998;27;2035;-65
2023/12/30 22:27:41;;;;;;;;;;;;;;;3.48;100.00;95481.69;10593374;27;2015;-63
2023/12/30 22:32:45;;;;;;;;;;;;;;;3.57;100.00;95479.50;10596075;27;2075;-64
2023/12/30 22:37:49;;;;;;;;;;;;;;;3.60;100.00;95471.03;10579157;27;2041;-64
2023/12/30 22:42:55;;;;;;;;;;;;;;;3.65;100.00;95461.31;10577032;27;2052;-64
2023/12/30 22:48:02;;;;;;;;;;;;;;;3.54;100.00;95462.16;10592986;27;2043;-64
2023/12/30 22:53:07;;;;;;;;;;;;;;;3.52;100.00;95456.28;10600329;27;2055;-66
2023/12/30 22:58:13;;;;;;;;;;;;;;;3.49;100.00;95435.47;10595670;27;1948;-64
2023/12/30 23:03:18;;;;;;;;;;;;;;;3.46;100.00;95426.13;10588356;27;1944;-63
2023/12/30 23:08:21;;;;;;;;;;;;;;;3.42;100.00;95426.84;10595772;27;1940;-64
2023/12/30 23:13:25;;;;;;;;;;;;;;;3.42;100.00;95425.00;10594563;27;1949;-64
2023/12/30 23:18:29;;;;;;;;;;;;;;;3.38;100.00;95412.44;10576010;27;2076;-64
2023/12/30 23:23:36;;;;;;;;;;;;;;;3.41;100.00;95404.78;10591412;27;2067;-65
2023/12/30 23:28:44;;;;;;;;;;;;;;;3.47;100.00;95395.06;10595705;27;2063;-63
2023/12/30 23:33:48;;;;;;;;;;;;;;;3.40;100.00;95378.47;10576080;27;2043;-66
2023/12/30 23:38:52;;;;;;;;;;;;;;;3.30;100.00;95378.25;10590596;27;1984;-64
2023/12/30 23:43:55;;;;;;;;;;;;;;;3.24;100.00;95364.06;10579186;27;2067;-64
2023/12/30 23:48:58;;;;;;;;;;;;;;;3.23;100.00;95347.31;10595361;27;2280;-63
2023/12/30 23:54:03;;;;;;;;;;;;;;;3.25;100.00;95342.59;10576332;27;2063;-61
2023/12/30 23:59:07;;;;;;;;;;;;;;;3.21;100.00;95333.50;10573246;27;2119;-65
